Time;durP1;ratioP1;P1;durP2;ratioP2;P2;SDS_P1;SDS_P2;PMS_P1;PMS_P2;Temp;Humidity;BMP_temperature;BMP_pressure;BME280_temperature;BME280_humidity;BME280_pressure;Samples;Min_cycle;Max_cycle;Signal;HPM_P1;HPM_P2
2022/11/29 00:00:40;;;;;;;15.75;9.68;;;;;;;5.31;100.00;100553.28;6457421;22;20014;-75
2022/11/29 00:03:10;;;;;;;19.40;10.60;;;;;;;5.29;100.00;100550.72;6495303;22;19999;-77
2022/11/29 00:05:41;;;;;;;20.13;10.30;;;;;;;5.29;100.00;100555.06;6494889;22;20327;-76
2022/11/29 00:08:12;;;;;;;18.65;11.00;;;;;;;5.20;100.00;100550.00;6495224;22;20472;-76
2022/11/29 00:10:43;;;;;;;19.30;10.80;;;;;;;5.23;100.00;100550.81;6457377;22;20494;-76
2022/11/29 00:13:13;;;;;;;31.45;15.65;;;;;;;5.13;100.00;100548.38;6495477;22;20008;-76
2022/11/29 00:15:43;;;;;;;24.90;12.90;;;;;;;5.17;100.00;100550.03;6495383;22;19996;-76
2022/11/29 00:18:14;;;;;;;20.55;11.05;;;;;;;5.31;100.00;100548.94;6495479;22;19999;-76
2022/11/29 00:20:44;;;;;;;21.48;10.68;;;;;;;5.24;100.00;100541.28;6457186;22;20004;-75
2022/11/29 00:23:14;;;;;;;18.55;10.35;;;;;;;5.31;100.00;100538.59;6495310;22;20287;-76
2022/11/29 00:25:44;;;;;;;21.20;10.52;;;;;;;5.22;100.00;100541.34;6494741;22;20383;-76
2022/11/29 00:28:15;;;;;;;16.27;9.85;;;;;;;5.30;100.00;100536.88;6484600;22;20004;-76
2022/11/29 00:30:46;;;;;;;23.77;10.68;;;;;;;5.21;100.00;100542.22;6482224;22;20378;-76
2022/11/29 00:33:16;;;;;;;16.55;9.68;;;;;;;5.24;100.00;100541.28;6496115;22;20006;-77
2022/11/29 00:35:46;;;;;;;20.55;10.05;;;;;;;5.30;100.00;100543.81;6496809;22;20015;-77
2022/11/29 00:38:16;;;;;;;18.33;10.15;;;;;;;5.17;100.00;100540.53;6496761;22;20516;-76
2022/11/29 00:40:51;;;;;;;20.73;10.05;;;;;;;5.22;100.00;100538.75;6486772;22;20070;-76
2022/11/29 00:43:21;;;;;;;16.95;10.45;;;;;;;5.15;100.00;100539.69;6497070;22;19996;-76
2022/11/29 00:45:53;;;;;;;15.73;9.27;;;;;;;5.21;100.00;100542.22;6485798;22;20661;-76
2022/11/29 00:48:23;;;;;;;19.50;9.27;;;;;;;5.27;100.00;100531.75;6496729;22;20021;-76
2022/11/29 00:50:54;;;;;;;21.13;10.75;;;;;;;5.16;100.00;100538.81;6496741;22;20003;-76
2022/11/29 00:53:24;;;;;;;17.45;10.25;;;;;;;5.18;100.00;100541.38;6497162;22;20313;-76
2022/11/29 00:55:55;;;;;;;16.73;9.73;;;;;;;5.17;100.00;100532.75;6496409;22;20007;-76
2022/11/29 00:58:25;;;;;;;18.20;10.65;;;;;;;5.12;100.00;100544.91;6458657;22;20007;-76
2022/11/29 01:00:56;;;;;;;21.40;11.00;;;;;;;5.08;100.00;100539.78;6497186;22;20004;-75
2022/11/29 01:03:26;;;;;;;19.00;10.40;;;;;;;5.07;100.00;100548.44;6496274;22;20023;-76
2022/11/29 01:06:09;;;;;;;19.50;10.40;;;;;;;5.07;100.00;100548.44;6458423;22;20141;-75
2022/11/29 01:08:40;;;;;;;19.88;10.80;;;;;;;5.08;100.00;100547.56;6496371;22;20007;-75
2022/11/29 01:11:12;;;;;;;17.70;10.45;;;;;;;5.12;100.00;100546.66;6459341;22;20090;-75
2022/11/29 01:13:43;;;;;;;18.52;10.57;;;;;;;5.14;100.00;100540.56;6496097;22;20439;-76
2022/11/29 01:16:15;;;;;;;18.83;10.82;;;;;;;5.21;100.00;100542.22;6496170;22;20008;-75
2022/11/29 01:18:45;;;;;;;19.25;10.88;;;;;;;5.30;100.00;100542.06;6496170;22;20383;-76
2022/11/29 01:21:19;;;;;;;17.80;9.80;;;;;;;5.23;100.00;100544.75;6496502;22;19999;-75
2022/11/29 01:23:51;;;;;;;19.48;9.93;;;;;;;5.32;100.00;100548.06;6496804;22;20049;-76
2022/11/29 01:26:25;;;;;;;16.70;9.30;;;;;;;5.31;100.00;100546.34;6495669;22;20011;-76
2022/11/29 01:28:57;;;;;;;15.75;9.30;;;;;;;5.34;100.00;100548.91;6496123;22;20495;-76
2022/11/29 01:31:35;;;;;;;16.55;9.25;;;;;;;5.31;100.00;100548.94;6495330;22;20000;-76
2022/11/29 01:34:06;;;;;;;16.13;9.52;;;;;;;5.38;100.00;100553.19;6496058;22;20003;-76
2022/11/29 01:36:36;;;;;;;17.73;10.13;;;;;;;5.27;100.00;100559.38;6495959;22;20487;-76
2022/11/29 01:39:07;;;;;;;19.05;10.70;;;;;;;5.24;100.00;100562.00;6494311;22;20008;-75
2022/11/29 01:41:37;;;;;;;18.65;10.45;;;;;;;5.31;100.00;100566.25;6496333;22;20462;-76
2022/11/29 01:44:10;;;;;;;17.83;9.68;;;;;;;5.30;100.00;100567.97;6496899;22;20076;-75
2022/11/29 01:46:43;;;;;;;18.15;10.57;;;;;;;5.31;100.00;100572.28;6495533;22;20094;-74
2022/11/29 01:49:16;;;;;;;19.95;10.57;;;;;;;5.33;100.00;100572.25;6495651;22;20038;-77
2022/11/29 01:51:52;;;;;;;18.50;9.80;;;;;;;5.27;100.00;100570.59;6489660;22;20324;-76
2022/11/29 01:54:23;;;;;;;18.88;9.90;;;;;;;5.47;100.00;100560.81;6485220;22;20056;-76
2022/11/29 01:56:53;;;;;;;17.50;10.40;;;;;;;5.51;100.00;100565.03;6495396;22;20079;-76
2022/11/29 01:59:28;;;;;;;17.63;9.40;;;;;;;5.63;100.00;100565.75;6495463;22;20450;-77
2022/11/29 02:02:05;;;;;;;16.83;9.90;;;;;;;5.57;100.00;100563.22;6457852;22;19999;-76
2022/11/29 02:04:37;;;;;;;17.75;10.27;;;;;;;5.56;100.00;100573.63;6485748;22;19999;-76
2022/11/29 02:07:08;;;;;;;18.80;10.65;;;;;;;5.69;100.00;100567.34;6495716;22;20003;-76
2022/11/29 02:09:38;;;;;;;18.77;10.70;;;;;;;5.59;100.00;100566.63;6495620;22;20010;-76
2022/11/29 02:12:40;;;;;;;17.83;10.00;;;;;;;5.61;100.00;100569.22;6485375;22;20091;-77
2022/11/29 02:15:27;;;;;;;18.88;10.05;;;;;;;5.61;100.00;100569.22;6495731;22;20078;-76
2022/11/29 02:18:03;;;;;;;18.30;10.40;;;;;;;5.55;100.00;100574.50;6495749;22;19999;-76
2022/11/29 02:21:13;;;;;;;18.23;10.07;;;;;;;5.60;100.00;100570.09;6457181;22;20004;-76
2022/11/29 02:24:06;;;;;;;19.50;10.77;;;;;;;5.54;100.00;100567.63;6494967;22;19999;-75
2022/11/29 02:27:03;;;;;;;20.55;11.27;;;;;;;5.47;100.00;100556.47;6495383;22;20053;-76
2022/11/29 02:30:05;;;;;;;20.77;10.70;;;;;;;5.40;100.00;100574.75;6495220;22;20500;-76
2022/11/29 02:33:06;;;;;;;20.58;11.32;;;;;;;5.37;100.00;100574.78;6494129;22;20390;-76
2022/11/29 02:35:51;;;;;;;24.10;11.68;;;;;;;5.27;100.00;100561.97;6493779;22;20004;-76
2022/11/29 02:38:55;;;;;;;24.40;11.85;;;;;;;5.18;100.00;100562.94;6494812;22;20436;-76
2022/11/29 02:42:07;;;;;;;24.45;11.63;;;;;;;5.10;100.00;100570.00;6495576;22;20038;-76
2022/11/29 02:45:03;;;;;;;23.63;12.57;;;;;;;5.11;100.00;100571.69;6386799;23;20388;-76
2022/11/29 02:48:01;;;;;;;20.90;11.32;;;;;;;5.28;100.00;100576.63;6397473;23;20475;-75
2022/11/29 02:50:39;;;;;;;20.27;11.10;;;;;;;5.46;100.00;100572.03;6486647;22;20030;-77
2022/11/29 02:53:21;;;;;;;20.73;11.15;;;;;;;5.52;100.00;100575.41;6495356;22;20057;-76
2022/11/29 02:56:04;;;;;;;21.63;12.05;;;;;;;5.51;100.00;100580.59;6456953;22;20190;-77
2022/11/29 02:58:43;;;;;;;21.02;11.95;;;;;;;5.50;100.00;100581.47;6457228;22;20109;-76
2022/11/29 03:01:25;;;;;;;18.80;10.43;;;;;;;5.44;100.00;100579.00;6494819;22;20006;-77
2022/11/29 03:04:30;;;;;;;17.98;10.50;;;;;;;5.60;100.00;100585.66;6495864;22;20265;-75
2022/11/29 03:07:18;;;;;;;22.90;11.68;;;;;;;5.48;100.00;100583.25;6494424;22;20098;-76
2022/11/29 03:10:15;;;;;;;19.80;11.07;;;;;;;5.38;100.00;100592.03;6495290;22;20000;-77
2022/11/29 03:12:47;;;;;;;;;;;;;;;5.32;100.00;100593.88;6495591;22;20058;-76
2022/11/29 03:15:29;;;;;;;24.25;11.85;;;;;;;5.38;100.00;100598.06;6494194;22;19903;-76
2022/11/29 03:18:17;;;;;;;23.50;12.27;;;;;;;5.24;100.00;100601.75;6495037;22;20074;-76
2022/11/29 03:21:09;;;;;;;18.95;11.38;;;;;;;5.27;100.00;100606.88;6494606;22;20074;-74
2022/11/29 03:23:46;;;;;;;21.50;11.98;;;;;;;5.31;100.00;100611.13;6494943;22;20027;-77
2022/11/29 03:26:22;;;;;;;22.80;12.73;;;;;;;5.44;100.00;100602.31;6494379;22;20010;-76
2022/11/29 03:29:06;;;;;;;23.27;11.60;;;;;;;5.46;100.00;100616.09;6455699;22;20250;-76
2022/11/29 03:31:46;;;;;;;23.88;12.45;;;;;;;5.42;100.00;100615.28;6493888;22;20443;-77
2022/11/29 03:34:19;;;;;;;20.85;12.00;;;;;;;5.44;100.00;100613.53;6494511;22;20004;-76
2022/11/29 03:36:58;;;;;;;20.17;11.65;;;;;;;5.56;100.00;100615.09;6457153;22;20069;-76
2022/11/29 03:39:37;;;;;;;21.52;12.13;;;;;;;5.53;100.00;100613.41;6494988;22;20003;-77
2022/11/29 03:42:14;;;;;;;20.85;12.23;;;;;;;5.64;100.00;100621.88;6495807;22;20021;-77
2022/11/29 03:45:02;;;;;;;22.60;12.15;;;;;;;5.51;100.00;100619.47;6495129;22;20423;-76
2022/11/29 03:47:40;;;;;;;24.20;12.30;;;;;;;5.52;100.00;100618.59;6494806;22;20134;-76
2022/11/29 03:50:15;;;;;;;25.90;12.45;;;;;;;5.43;100.00;100621.34;6495113;22;20014;-75
2022/11/29 03:53:09;;;;;;;23.13;12.68;;;;;;;5.28;100.00;100620.66;6455932;22;20094;-76
2022/11/29 03:55:51;;;;;;;24.08;12.43;;;;;;;5.22;100.00;100624.22;6494886;22;20057;-75
2022/11/29 03:58:52;;;;;;;24.83;13.25;;;;;;;5.10;100.00;100616.59;6494979;22;20010;-76
2022/11/29 04:01:50;;;;;;;24.10;12.52;;;;;;;5.21;100.00;100616.47;6494732;22;20334;-76
2022/11/29 04:05:00;;;;;;;26.08;14.18;;;;;;;5.17;100.00;100626.00;6494837;22;20000;-76
2022/11/29 04:08:06;;;;;;;24.15;13.50;;;;;;;5.22;100.00;100632.00;6482276;22;20498;-76
2022/11/29 04:10:49;;;;;;;22.33;12.88;;;;;;;5.27;100.00;100625.00;6466730;22;20488;-76
2022/11/29 04:13:33;;;;;;;25.40;12.98;;;;;;;5.24;100.00;100635.41;6497204;22;20035;-76
2022/11/29 04:16:35;;;;;;;21.33;12.68;;;;;;;5.39;100.00;100635.22;6458534;22;19999;-76
2022/11/29 04:19:33;;;;;;;24.48;13.10;;;;;;;5.33;100.00;100639.63;6486161;22;20004;-73
2022/11/29 04:22:33;;;;;;;25.70;13.27;;;;;;;5.29;100.00;100641.38;6496668;22;20509;-76
2022/11/29 04:25:19;;;;;;;24.25;13.40;;;;;;;5.44;100.00;100633.41;6458943;22;20004;-75
2022/11/29 04:27:57;;;;;;;20.85;11.68;;;;;;;5.51;100.00;100630.72;6458052;22;20007;-77
2022/11/29 04:30:41;;;;;;;25.05;13.48;;;;;;;5.46;100.00;100642.88;6456142;22;20090;-76
2022/11/29 04:33:23;;;;;;;24.33;12.95;;;;;;;5.43;100.00;100640.31;6459264;22;20004;-76
2022/11/29 04:36:02;;;;;;;22.63;12.93;;;;;;;5.39;100.00;100633.47;6495981;22;20029;-76
2022/11/29 04:39:15;;;;;;;22.77;13.32;;;;;;;5.33;100.00;100640.47;6496155;22;20050;-76
2022/11/29 04:41:56;;;;;;;22.30;13.00;;;;;;;5.31;100.00;100642.22;6496470;22;20585;-76
2022/11/29 04:44:58;;;;;;;21.83;12.20;;;;;;;5.41;100.00;100655.03;6496421;22;20034;-74
2022/11/29 04:47:37;;;;;;;24.65;12.95;;;;;;;5.64;100.00;100649.53;6496715;22;20443;-76
2022/11/29 04:50:22;;;;;;;24.50;13.13;;;;;;;5.68;100.00;100658.97;6496084;22;20003;-76
2022/11/29 04:53:17;;;;;;;23.33;12.32;;;;;;;5.62;100.00;100653.88;6496311;22;20038;-76
2022/11/29 04:56:03;;;;;;;22.58;12.75;;;;;;;5.53;100.00;100654.88;6496157;22;20374;-76
2022/11/29 04:58:45;;;;;;;;;;;;;;;5.47;100.00;100656.69;6484957;22;20330;-76
2022/11/29 05:01:29;;;;;;;25.45;14.10;;;;;;;5.37;100.00;100667.19;6458117;22;20227;-77
2022/11/29 05:04:20;;;;;;;27.45;14.23;;;;;;;5.33;100.00;100662.94;6496321;22;20007;-75
2022/11/29 05:07:12;;;;;;;26.55;14.35;;;;;;;5.32;100.00;100666.41;6494515;22;20011;-75
2022/11/29 05:09:54;;;;;;;27.48;14.40;;;;;;;5.39;100.00;100674.09;6495940;22;20003;-76
2022/11/29 05:12:46;;;;;;;29.27;14.85;;;;;;;5.37;100.00;100678.44;6496512;22;19996;-76
2022/11/29 05:15:49;;;;;;;27.60;15.07;;;;;;;5.39;100.00;100672.34;6457458;22;20138;-75
2022/11/29 05:18:34;;;;;;;30.75;15.05;;;;;;;5.35;100.00;100679.31;6457936;22;20003;-76
2022/11/29 05:21:31;;;;;;;30.63;15.07;;;;;;;5.42;100.00;100682.66;6458455;22;20332;-76
2022/11/29 05:24:01;;;;;;;29.70;15.27;;;;;;;5.33;100.00;100670.72;6462954;22;20078;-76
2022/11/29 05:27:10;;;;;;;27.05;14.40;;;;;;;5.38;100.00;100680.16;6484780;22;20038;-76
2022/11/29 05:30:01;;;;;;;27.83;15.02;;;;;;;5.24;100.00;100686.34;6480993;22;20008;-76
2022/11/29 05:32:59;;;;;;;26.67;14.95;;;;;;;5.19;100.00;100683.81;6496015;22;20335;-75
2022/11/29 05:36:24;;;;;;;29.05;15.85;;;;;;;5.19;100.00;100689.00;6494719;22;20061;-76
2022/11/29 05:39:03;;;;;;;30.10;15.57;;;;;;;5.20;100.00;100682.97;6397762;23;20001;-76
2022/11/29 05:42:22;;;;;;;35.10;15.98;;;;;;;5.18;100.00;100691.63;6388253;23;20407;-76
2022/11/29 05:45:03;;;;;;;29.60;15.85;;;;;;;5.20;100.00;100687.28;6454874;22;20000;-75
2022/11/29 05:47:42;;;;;;;28.73;15.77;;;;;;;5.21;100.00;100692.47;6497261;22;20079;-76
2022/11/29 05:50:38;;;;;;;29.02;15.43;;;;;;;5.21;100.00;100692.47;6495416;22;20054;-76
2022/11/29 05:53:29;;;;;;;28.67;16.15;;;;;;;5.17;100.00;100695.94;6474111;22;20004;-76
2022/11/29 05:56:35;;;;;;;28.25;15.18;;;;;;;5.24;100.00;100696.72;6496360;22;20007;-75
2022/11/29 05:59:14;;;;;;;25.60;14.68;;;;;;;5.24;100.00;100701.91;6496460;22;20339;-75
2022/11/29 06:01:56;;;;;;;28.20;14.80;;;;;;;5.37;100.00;100701.75;6496940;22;20465;-75
2022/11/29 06:05:05;;;;;;;26.50;14.48;;;;;;;5.43;100.00;100712.03;6495663;22;19996;-75
2022/11/29 06:07:54;;;;;;;30.40;15.10;;;;;;;5.52;100.00;100710.19;6457878;22;20530;-76
2022/11/29 06:10:31;;;;;;;28.00;15.07;;;;;;;5.51;100.00;100712.78;6496178;22;20010;-75
2022/11/29 06:13:20;;;;;;;25.27;14.65;;;;;;;5.51;100.00;100712.78;6495884;22;20389;-75
2022/11/29 06:15:55;;;;;;;27.50;14.73;;;;;;;5.69;100.00;100718.59;6484797;22;20011;-75
2022/11/29 06:18:37;;;;;;;25.40;14.33;;;;;;;5.62;100.00;100722.16;6496898;22;20497;-76
2022/11/29 06:21:24;;;;;;;27.90;14.75;;;;;;;5.41;100.00;100724.16;6484920;22;20008;-75
2022/11/29 06:24:18;;;;;;;28.27;14.55;;;;;;;5.33;100.00;100722.53;6457390;22;20469;-75
2022/11/29 06:27:05;;;;;;;28.33;15.25;;;;;;;5.57;100.00;100720.50;6474902;22;20004;-76
2022/11/29 06:29:46;;;;;;;26.33;14.43;;;;;;;5.65;100.00;100732.47;6494870;22;20010;-74
2022/11/29 06:32:30;;;;;;;32.38;15.20;;;;;;;5.55;100.00;100730.88;6495584;22;20291;-75
2022/11/29 06:35:11;;;;;;;31.98;15.00;;;;;;;5.41;100.00;100732.78;6457752;22;20069;-75
2022/11/29 06:37:47;;;;;;;30.88;16.23;;;;;;;5.51;100.00;100739.56;6456989;22;20053;-76
2022/11/29 06:40:17;;;;;;;27.88;15.60;;;;;;;5.53;100.00;100735.22;6496649;22;20422;-74
2022/11/29 06:42:48;;;;;;;28.13;14.77;;;;;;;5.78;100.00;100735.75;6495831;22;20052;-75
2022/11/29 06:45:20;;;;;;;29.60;15.80;;;;;;;5.57;100.00;100734.28;6457408;22;19999;-76
2022/11/29 06:48:01;;;;;;;29.40;16.42;;;;;;;5.67;100.00;100748.00;6468974;22;20081;-76
2022/11/29 06:51:09;;;;;;;27.48;14.90;;;;;;;5.72;100.00;100748.81;6495268;22;20007;-75
2022/11/29 06:53:58;;;;;;;26.13;14.77;;;;;;;5.73;100.00;100750.53;6495794;22;20544;-76
2022/11/29 06:57:13;;;;;;;26.70;14.32;;;;;;;5.62;100.00;100754.97;6494760;22;20003;-75
2022/11/29 06:59:53;;;;;;;24.05;13.98;;;;;;;5.75;100.00;100757.38;6451177;22;20003;-74
2022/11/29 07:02:38;;;;;;;24.60;14.05;;;;;;;5.79;100.00;100755.66;6496600;22;19999;-75
2022/11/29 07:05:30;;;;;;;27.75;15.40;;;;;;;5.79;100.00;100756.53;6495195;22;20502;-75
2022/11/29 07:08:04;;;;;;;27.08;14.82;;;;;;;5.85;100.00;100760.75;6495176;22;20061;-74
2022/11/29 07:10:39;;;;;;;26.73;14.52;;;;;;;5.82;100.00;100764.25;6495103;22;20049;-75
2022/11/29 07:13:12;;;;;;;25.20;14.77;;;;;;;5.70;100.00;100772.16;6494992;22;20031;-76
2022/11/29 07:16:10;;;;;;;29.80;15.55;;;;;;;5.68;100.00;100773.03;6457672;22;20023;-74
2022/11/29 07:19:03;;;;;;;29.25;15.43;;;;;;;5.63;100.00;100772.25;6494451;22;20019;-75
2022/11/29 07:22:17;;;;;;;29.23;15.80;;;;;;;5.66;100.00;100777.38;6465474;22;20049;-75
2022/11/29 07:24:50;;;;;;;27.92;15.20;;;;;;;5.59;100.00;100784.38;6494583;22;20383;-75
2022/11/29 07:27:46;;;;;;;28.75;15.18;;;;;;;5.61;100.00;100781.78;6484918;22;20003;-73
2022/11/29 07:30:20;;;;;;;27.83;15.90;;;;;;;5.55;100.00;100782.72;6495581;22;20069;-74
2022/11/29 07:33:10;;;;;;;29.92;15.32;;;;;;;5.67;100.00;100786.88;6494906;22;20007;-75
2022/11/29 07:35:46;;;;;;;29.63;16.20;;;;;;;5.61;100.00;100792.16;6495322;22;20035;-75
2022/11/29 07:38:22;;;;;;;32.28;16.88;;;;;;;5.54;100.00;100790.53;6495102;22;20003;-76
2022/11/29 07:40:59;;;;;;;30.95;16.80;;;;;;;5.42;100.00;100793.25;6457072;22;19999;-75
2022/11/29 07:43:44;;;;;;;31.40;16.95;;;;;;;5.61;100.00;100795.56;6459617;22;20000;-76
2022/11/29 07:46:14;;;;;;;34.17;16.70;;;;;;;5.47;100.00;100796.63;6497628;22;20472;-75
2022/11/29 07:48:44;;;;;;;32.20;16.85;;;;;;;5.51;100.00;100800.91;6498010;22;20021;-75
2022/11/29 07:51:15;;;;;;;29.10;16.17;;;;;;;5.43;100.00;100797.56;6497691;22;20053;-75
2022/11/29 07:53:45;;;;;;;34.70;15.82;;;;;;;5.41;100.00;100802.72;6459538;22;19999;-76
2022/11/29 07:56:16;;;;;;;32.30;17.42;;;;;;;5.29;100.00;100808.94;6497344;22;20026;-75
2022/11/29 07:58:46;;;;;;;32.38;17.33;;;;;;;5.15;100.00;100803.03;6460612;22;20430;-73
2022/11/29 08:01:16;;;;;;;32.78;18.20;;;;;;;5.05;100.00;100806.59;6497960;22;20000;-75
2022/11/29 08:03:47;;;;;;;35.53;17.52;;;;;;;5.08;100.00;100810.03;6498377;22;20000;-75
2022/11/29 08:06:23;;;;;;;33.33;18.30;;;;;;;5.18;100.00;100806.44;6487571;22;20000;-75
2022/11/29 08:08:56;;;;;;;32.33;17.45;;;;;;;5.14;100.00;100820.31;6497710;22;20000;-74
2022/11/29 08:11:27;;;;;;;34.28;17.73;;;;;;;5.27;100.00;100816.72;6497330;22;19999;-74
2022/11/29 08:13:59;;;;;;;31.63;17.67;;;;;;;5.32;100.00;100824.47;6496828;22;20004;-75
2022/11/29 08:16:30;;;;;;;35.42;17.90;;;;;;;5.25;100.00;100821.06;6497413;22;20012;-75
2022/11/29 08:19:01;;;;;;;35.35;17.60;;;;;;;5.24;100.00;100821.06;6497871;22;20093;-75
2022/11/29 08:21:31;;;;;;;33.55;17.80;;;;;;;5.24;100.00;100821.94;6497855;22;20455;-75
2022/11/29 08:24:01;;;;;;;31.50;17.20;;;;;;;5.27;100.00;100821.03;6457904;22;19995;-75
2022/11/29 08:26:32;;;;;;;33.67;18.23;;;;;;;5.40;100.00;100833.88;6496599;22;20431;-75
2022/11/29 08:29:02;;;;;;;33.72;17.65;;;;;;;5.36;100.00;100824.38;6497166;22;19999;-75
2022/11/29 08:31:33;;;;;;;31.77;17.95;;;;;;;5.46;100.00;100826.88;6497139;22;20316;-75
2022/11/29 08:34:05;;;;;;;32.55;17.08;;;;;;;5.42;100.00;100832.13;6496558;22;19996;-75
2022/11/29 08:36:36;;;;;;;30.27;16.88;;;;;;;5.62;100.00;100828.44;6496015;22;20086;-75
2022/11/29 08:39:06;;;;;;;32.08;17.20;;;;;;;5.53;100.00;100832.84;6497347;22;20403;-74
2022/11/29 08:41:37;;;;;;;30.63;16.50;;;;;;;5.53;100.00;100831.13;6496856;22;20019;-76
2022/11/29 08:44:07;;;;;;;33.97;17.48;;;;;;;5.45;100.00;100837.25;6497850;22;20431;-78
2022/11/29 08:49:26;;;;;;;33.80;16.88;;;;;;;5.68;100.00;100836.13;6497010;22;20085;-78
2022/11/29 08:54:45;;;;;;;33.67;17.70;;;;;;;5.42;100.00;100848.50;6496739;22;20442;-75
2022/11/29 08:57:15;;;;;;;32.05;17.35;;;;;;;5.48;100.00;100848.47;6459036;22;19999;-77
2022/11/29 08:59:46;;;;;;;33.72;17.40;;;;;;;5.33;100.00;100847.75;6459651;22;20008;-77
2022/11/29 09:02:18;;;;;;;33.95;17.15;;;;;;;5.37;100.00;100857.22;6497790;22;19995;-78
2022/11/29 09:04:48;;;;;;;31.95;17.77;;;;;;;5.39;100.00;100853.72;6459839;22;20034;-75
2022/11/29 09:07:18;;;;;;;32.22;16.95;;;;;;;5.52;100.00;100860.50;6459642;22;20086;-77
2022/11/29 09:09:49;;;;;;;31.50;16.95;;;;;;;5.61;100.00;100868.16;6496929;22;20008;-78
2022/11/29 09:12:19;;;;;;;29.75;16.67;;;;;;;5.58;100.00;100864.78;6497241;22;20026;-79
2022/11/29 09:14:49;;;;;;;32.30;17.20;;;;;;;5.70;100.00;100872.38;6497148;22;20186;-77
2022/11/29 09:17:20;;;;;;;29.25;16.50;;;;;;;5.85;100.00;100870.53;6496931;22;20061;-78
2022/11/29 09:19:50;;;;;;;36.33;16.15;;;;;;;5.78;100.00;100868.00;6458933;22;20010;-77
2022/11/29 09:22:20;;;;;;;27.08;15.57;;;;;;;5.82;100.00;100875.75;6496874;22;20029;-77
2022/11/29 09:24:51;;;;;;;31.23;16.45;;;;;;;5.82;100.00;100875.75;6496124;22;20359;-77
2022/11/29 09:27:21;;;;;;;34.33;17.40;;;;;;;5.63;100.00;100883.72;6497481;22;20007;-78
2022/11/29 09:29:51;;;;;;;37.55;17.88;;;;;;;5.53;100.00;100877.78;6497045;22;19996;-77
2022/11/29 09:32:22;;;;;;;38.17;17.45;;;;;;;5.60;100.00;100883.75;6496133;22;20051;-77
2022/11/29 09:34:52;;;;;;;30.77;16.90;;;;;;;5.80;100.00;100874.91;6496433;22;20484;-77
2022/11/29 09:37:22;;;;;;;31.63;17.98;;;;;;;5.64;100.00;100880.25;6496644;22;20007;-78
2022/11/29 09:39:52;;;;;;;32.38;17.85;;;;;;;5.48;100.00;100884.75;6497037;22;20184;-78
2022/11/29 09:42:37;;;;;;;31.58;17.45;;;;;;;5.50;100.00;100893.34;6458986;22;20000;-78
2022/11/29 09:45:18;;;;;;;33.67;18.02;;;;;;;5.52;100.00;100888.13;6496624;22;20000;-78
2022/11/29 09:48:13;;;;;;;35.03;18.02;;;;;;;5.62;100.00;100892.38;6484227;22;20038;-78
2022/11/29 09:51:05;;;;;;;34.80;18.27;;;;;;;5.74;100.00;100889.66;6496292;22;20006;-78
2022/11/29 09:53:42;;;;;;;32.60;18.05;;;;;;;5.86;100.00;100900.78;6496213;22;20073;-77
2022/11/29 09:56:38;;;;;;;34.72;17.40;;;;;;;5.84;100.00;100891.28;6496790;22;20014;-78
2022/11/29 09:59:15;;;;;;;32.67;17.60;;;;;;;5.99;100.00;100897.16;6495875;22;20019;-78
2022/11/29 10:01:50;;;;;;;32.08;17.63;;;;;;;5.92;100.00;100892.06;6496870;22;20381;-77
2022/11/29 10:04:27;;;;;;;37.50;18.50;;;;;;;5.81;100.00;100894.78;6486810;22;20000;-77
2022/11/29 10:07:22;;;;;;;33.53;17.30;;;;;;;5.83;100.00;100902.53;6496528;22;20457;-77
2022/11/29 10:10:01;;;;;;;33.30;18.23;;;;;;;5.65;100.00;100897.50;6458735;22;19995;-77
2022/11/29 10:12:43;;;;;;;36.08;18.90;;;;;;;5.66;100.00;100896.63;6496659;22;20086;-76
2022/11/29 10:15:24;;;;;;;41.10;19.17;;;;;;;5.57;100.00;100896.75;6496316;22;19999;-77
2022/11/29 10:18:03;;;;;;;40.15;19.45;;;;;;;5.63;100.00;100900.13;6495904;22;20070;-78
2022/11/29 10:20:38;;;;;;;38.63;20.23;;;;;;;5.65;100.00;100902.69;6495671;22;20067;-76
2022/11/29 10:23:21;;;;;;;40.63;19.57;;;;;;;5.80;100.00;100900.84;6495606;22;19995;-75
2022/11/29 10:25:54;;;;;;;36.90;20.30;;;;;;;5.69;100.00;100902.66;6458038;22;20000;-75
2022/11/29 10:28:29;;;;;;;39.28;20.30;;;;;;;5.67;100.00;100898.34;6457151;22;20015;-74
2022/11/29 10:31:26;;;;;;;43.03;20.90;;;;;;;5.67;100.00;100895.75;6495494;22;20000;-75
2022/11/29 10:33:59;;;;;;;37.03;19.80;;;;;;;5.62;100.00;100905.31;6496423;22;20327;-75
2022/11/29 10:36:39;;;;;;;37.47;19.52;;;;;;;5.62;100.00;100907.91;6457697;22;20044;-75
2022/11/29 10:39:19;;;;;;;41.95;20.35;;;;;;;5.72;100.00;100899.19;6495657;22;20442;-75
2022/11/29 10:41:54;;;;;;;38.88;20.77;;;;;;;5.93;100.00;100896.38;6485239;22;20011;-75
2022/11/29 10:44:25;;;;;;;43.42;22.23;;;;;;;5.81;100.00;100893.91;6496145;22;20038;-75
2022/11/29 10:46:59;;;;;;;39.13;20.63;;;;;;;6.00;100.00;100898.00;6495280;22;20497;-75
2022/11/29 10:49:34;;;;;;;48.45;21.52;;;;;;;6.02;100.00;100891.06;6457576;22;20018;-75
2022/11/29 10:52:04;;;;;;;33.93;16.50;;;;;;;6.05;100.00;100901.44;6491087;22;20007;-74
2022/11/29 10:54:41;;;;;;;45.90;21.95;;;;;;;5.95;100.00;100903.25;6455056;22;20308;-74
2022/11/29 10:57:14;;;;;;;44.83;22.17;;;;;;;5.91;100.00;100911.94;6454861;22;20012;-74
2022/11/29 11:00:19;;;;;;;44.17;22.38;;;;;;;5.95;100.00;100899.81;6494296;22;19995;-75
2022/11/29 11:02:50;;;;;;;46.60;23.37;;;;;;;5.85;100.00;100899.06;6360555;23;20009;-75
2022/11/29 11:05:25;;;;;;;53.40;23.52;;;;;;;5.83;100.00;100899.94;6475962;22;20018;-74
2022/11/29 11:07:56;;;;;;;50.42;23.52;;;;;;;5.73;100.00;100903.50;6486407;22;20008;-78
2022/11/29 11:10:29;;;;;;;51.28;23.30;;;;;;;5.71;100.00;100913.03;6482448;22;20026;-78
2022/11/29 11:13:05;;;;;;;50.00;23.92;;;;;;;5.55;100.00;100908.88;6456980;22;20525;-78
2022/11/29 11:15:36;;;;;;;48.85;24.40;;;;;;;5.83;100.00;100902.53;6493714;22;20042;-78
2022/11/29 11:18:20;;;;;;;50.30;23.20;;;;;;;5.86;100.00;100910.28;6486286;22;20451;-75
2022/11/29 11:20:57;;;;;;;45.70;22.83;;;;;;;5.95;100.00;100915.38;6493131;22;20014;-77
2022/11/29 11:23:36;;;;;;;51.08;23.17;;;;;;;5.95;100.00;100923.16;6483716;22;20010;-74
2022/11/29 11:26:10;;;;;;;50.97;24.05;;;;;;;6.00;100.00;100917.03;6455661;22;20351;-74
2022/11/29 11:28:43;;;;;;;44.13;22.97;;;;;;;5.86;100.00;100918.91;6456299;22;20034;-76
2022/11/29 11:31:13;;;;;;;50.13;23.55;;;;;;;5.58;100.00;100922.63;6492578;22;20380;-77
2022/11/29 11:33:45;;;;;;;53.50;25.70;;;;;;;5.47;100.00;100934.88;6485065;22;20134;-77
2022/11/29 11:36:18;;;;;;;51.75;24.73;;;;;;;5.57;100.00;100925.25;6454581;22;20003;-77
2022/11/29 11:38:52;;;;;;;55.55;26.25;;;;;;;5.58;100.00;100925.22;6484805;22;20009;-77
2022/11/29 11:44:27;;;;;;;52.80;24.67;;;;;;;5.79;100.00;100937.16;6483288;22;20007;-77
2022/11/29 11:46:59;;;;;;;53.42;24.63;;;;;;;5.77;100.00;100931.09;6493323;22;20003;-76
2022/11/29 11:49:45;;;;;;;56.70;25.80;;;;;;;5.63;100.00;100935.56;6453647;22;20030;-77
2022/11/29 11:52:21;;;;;;;53.03;26.23;;;;;;;5.65;100.00;100926.91;6454544;22;20056;-77
2022/11/29 11:54:58;;;;;;;52.83;25.63;;;;;;;5.68;100.00;100926.88;6493432;22;20461;-77
2022/11/29 11:57:29;;;;;;;58.58;27.45;;;;;;;5.56;100.00;100929.56;6481910;22;20006;-76
2022/11/29 11:59:59;;;;;;;57.42;25.98;;;;;;;5.51;100.00;100930.47;6493613;22;19988;-77
2022/11/29 12:02:38;;;;;;;58.80;27.42;;;;;;;5.65;100.00;100934.69;6492082;22;20061;-76
2022/11/29 12:05:15;;;;;;;61.28;28.00;;;;;;;5.56;100.00;100934.75;6492617;22;20443;-75
2022/11/29 12:07:53;;;;;;;56.85;28.00;;;;;;;5.58;100.00;100943.38;6492021;22;20094;-76
2022/11/29 12:10:27;;;;;;;65.75;28.48;;;;;;;5.70;100.00;100944.97;6493832;22;20008;-77
2022/11/29 12:12:59;;;;;;;59.60;27.38;;;;;;;5.68;100.00;100938.97;6492201;22;20082;-77
2022/11/29 12:15:34;;;;;;;62.05;27.88;;;;;;;5.76;100.00;100943.19;6492755;22;20011;-77